sensor_id;sensor_type;location;lat;lon;timestamp;P1;durP1;ratioP1;P2;durP2;ratioP2
67816;SDS011;54614;47.576;7.524;2022-07-23T00:00:33;7.20;;;6.50;;
67816;SDS011;54614;47.576;7.524;2022-07-23T00:02:59;7.38;;;6.65;;
67816;SDS011;54614;47.576;7.524;2022-07-23T00:05:25;7.25;;;6.55;;
67816;SDS011;54614;47.576;7.524;2022-07-23T00:07:51;7.28;;;6.40;;
67816;SDS011;54614;47.576;7.524;2022-07-23T00:10:17;7.10;;;6.38;;
67816;SDS011;54614;47.576;7.524;2022-07-23T00:12:43;7.00;;;6.30;;
67816;SDS011;54614;47.576;7.524;2022-07-23T00:15:09;6.88;;;6.18;;
67816;SDS011;54614;47.576;7.524;2022-07-23T00:17:35;7.18;;;6.47;;
67816;SDS011;54614;47.576;7.524;2022-07-23T00:20:01;7.30;;;6.60;;
67816;SDS011;54614;47.576;7.524;2022-07-23T00:22:28;6.68;;;5.95;;
67816;SDS011;54614;47.576;7.524;2022-07-23T00:24:54;6.93;;;6.22;;
67816;SDS011;54614;47.576;7.524;2022-07-23T00:27:21;6.88;;;6.22;;
67816;SDS011;54614;47.576;7.524;2022-07-23T00:29:47;7.65;;;6.20;;
67816;SDS011;54614;47.576;7.524;2022-07-23T00:32:13;6.88;;;6.18;;
67816;SDS011;54614;47.576;7.524;2022-07-23T00:34:40;6.85;;;6.22;;
67816;SDS011;54614;47.576;7.524;2022-07-23T00:37:06;7.15;;;5.88;;
67816;SDS011;54614;47.576;7.524;2022-07-23T00:39:32;6.43;;;5.82;;
67816;SDS011;54614;47.576;7.524;2022-07-23T00:41:57;6.97;;;6.28;;
67816;SDS011;54614;47.576;7.524;2022-07-23T00:44:24;6.57;;;5.97;;
67816;SDS011;54614;47.576;7.524;2022-07-23T00:46:54;6.53;;;5.68;;
67816;SDS011;54614;47.576;7.524;2022-07-23T00:49:25;6.63;;;5.95;;
67816;SDS011;54614;47.576;7.524;2022-07-23T00:51:54;6.63;;;6.03;;
67816;SDS011;54614;47.576;7.524;2022-07-23T00:54:22;6.55;;;5.95;;
67816;SDS011;54614;47.576;7.524;2022-07-23T00:56:51;6.30;;;5.70;;
67816;SDS011;54614;47.576;7.524;2022-07-23T00:59:18;5.97;;;5.47;;
67816;SDS011;54614;47.576;7.524;2022-07-23T01:01:44;5.80;;;5.28;;
67816;SDS011;54614;47.576;7.524;2022-07-23T01:04:12;6.40;;;5.78;;
67816;SDS011;54614;47.576;7.524;2022-07-23T01:06:40;6.35;;;5.75;;
67816;SDS011;54614;47.576;7.524;2022-07-23T01:09:08;6.30;;;5.70;;
67816;SDS011;54614;47.576;7.524;2022-07-23T01:11:35;6.20;;;5.60;;
67816;SDS011;54614;47.576;7.524;2022-07-23T01:14:09;6.85;;;5.60;;
67816;SDS011;54614;47.576;7.524;2022-07-23T01:16:36;6.90;;;5.75;;
67816;SDS011;54614;47.576;7.524;2022-07-23T01:19:02;6.05;;;5.45;;
67816;SDS011;54614;47.576;7.524;2022-07-23T01:21:31;6.05;;;5.50;;
67816;SDS011;54614;47.576;7.524;2022-07-23T01:24:02;6.15;;;5.57;;
67816;SDS011;54614;47.576;7.524;2022-07-23T01:26:29;6.20;;;5.60;;
67816;SDS011;54614;47.576;7.524;2022-07-23T01:28:55;6.25;;;5.65;;
67816;SDS011;54614;47.576;7.524;2022-07-23T01:31:21;6.00;;;5.40;;
67816;SDS011;54614;47.576;7.524;2022-07-23T01:33:47;5.88;;;5.38;;
67816;SDS011;54614;47.576;7.524;2022-07-23T01:36:14;6.10;;;5.50;;
67816;SDS011;54614;47.576;7.524;2022-07-23T01:38:39;5.70;;;5.20;;
67816;SDS011;54614;47.576;7.524;2022-07-23T01:41:05;6.05;;;5.50;;
67816;SDS011;54614;47.576;7.524;2022-07-23T01:43:31;5.63;;;5.13;;
67816;SDS011;54614;47.576;7.524;2022-07-23T01:45:57;5.72;;;5.20;;
67816;SDS011;54614;47.576;7.524;2022-07-23T01:48:23;5.95;;;5.35;;
67816;SDS011;54614;47.576;7.524;2022-07-23T01:50:49;5.82;;;5.22;;
67816;SDS011;54614;47.576;7.524;2022-07-23T01:53:15;6.72;;;5.32;;
67816;SDS011;54614;47.576;7.524;2022-07-23T01:55:41;6.00;;;5.40;;
67816;SDS011;54614;47.576;7.524;2022-07-23T01:58:08;5.70;;;5.20;;
67816;SDS011;54614;47.576;7.524;2022-07-23T02:00:34;5.88;;;5.35;;
67816;SDS011;54614;47.576;7.524;2022-07-23T02:03:00;5.72;;;5.20;;
67816;SDS011;54614;47.576;7.524;2022-07-23T02:05:26;5.40;;;4.90;;
67816;SDS011;54614;47.576;7.524;2022-07-23T02:07:57;5.53;;;5.03;;
67816;SDS011;54614;47.576;7.524;2022-07-23T02:10:24;5.32;;;4.82;;
67816;SDS011;54614;47.576;7.524;2022-07-23T02:12:51;5.53;;;5.03;;
67816;SDS011;54614;47.576;7.524;2022-07-23T02:15:17;5.20;;;4.70;;
67816;SDS011;54614;47.576;7.524;2022-07-23T02:17:43;5.35;;;4.90;;
67816;SDS011;54614;47.576;7.524;2022-07-23T02:20:10;5.45;;;4.97;;
67816;SDS011;54614;47.576;7.524;2022-07-23T02:22:37;5.60;;;5.10;;
67816;SDS011;54614;47.576;7.524;2022-07-23T02:25:04;5.32;;;4.82;;
67816;SDS011;54614;47.576;7.524;2022-07-23T02:27:32;5.60;;;5.10;;
67816;SDS011;54614;47.576;7.524;2022-07-23T02:29:58;6.82;;;5.15;;
67816;SDS011;54614;47.576;7.524;2022-07-23T02:32:24;5.40;;;4.90;;
67816;SDS011;54614;47.576;7.524;2022-07-23T02:34:52;6.28;;;5.07;;
67816;SDS011;54614;47.576;7.524;2022-07-23T02:37:18;5.63;;;5.13;;
67816;SDS011;54614;47.576;7.524;2022-07-23T02:39:44;5.97;;;4.97;;
67816;SDS011;54614;47.576;7.524;2022-07-23T02:42:10;5.07;;;4.63;;
67816;SDS011;54614;47.576;7.524;2022-07-23T02:44:36;5.38;;;4.88;;
67816;SDS011;54614;47.576;7.524;2022-07-23T02:47:02;5.57;;;5.00;;
67816;SDS011;54614;47.576;7.524;2022-07-23T02:49:28;5.50;;;5.00;;
67816;SDS011;54614;47.576;7.524;2022-07-23T02:51:54;5.60;;;5.05;;
67816;SDS011;54614;47.576;7.524;2022-07-23T02:54:20;5.45;;;4.93;;
67816;SDS011;54614;47.576;7.524;2022-07-23T02:56:45;5.47;;;4.97;;
67816;SDS011;54614;47.576;7.524;2022-07-23T02:59:11;5.25;;;4.75;;
67816;SDS011;54614;47.576;7.524;2022-07-23T03:01:37;5.10;;;4.65;;
67816;SDS011;54614;47.576;7.524;2022-07-23T03:04:03;4.85;;;4.45;;
67816;SDS011;54614;47.576;7.524;2022-07-23T03:06:29;5.00;;;4.55;;
67816;SDS011;54614;47.576;7.524;2022-07-23T03:08:55;5.30;;;4.80;;
67816;SDS011;54614;47.576;7.524;2022-07-23T03:11:21;5.32;;;4.82;;
67816;SDS011;54614;47.576;7.524;2022-07-23T03:13:47;5.40;;;4.90;;
67816;SDS011;54614;47.576;7.524;2022-07-23T03:16:13;5.50;;;5.00;;
67816;SDS011;54614;47.576;7.524;2022-07-23T03:18:39;5.53;;;5.03;;
67816;SDS011;54614;47.576;7.524;2022-07-23T03:21:04;5.07;;;4.57;;
67816;SDS011;54614;47.576;7.524;2022-07-23T03:23:30;5.50;;;5.00;;
67816;SDS011;54614;47.576;7.524;2022-07-23T03:25:56;5.35;;;4.85;;
67816;SDS011;54614;47.576;7.524;2022-07-23T03:28:22;5.20;;;4.70;;
67816;SDS011;54614;47.576;7.524;2022-07-23T03:30:48;5.28;;;4.85;;
67816;SDS011;54614;47.576;7.524;2022-07-23T03:33:14;5.07;;;4.68;;
67816;SDS011;54614;47.576;7.524;2022-07-23T03:35:44;5.20;;;4.72;;
67816;SDS011;54614;47.576;7.524;2022-07-23T03:38:12;5.20;;;4.70;;
67816;SDS011;54614;47.576;7.524;2022-07-23T03:40:39;5.15;;;4.68;;
67816;SDS011;54614;47.576;7.524;2022-07-23T03:43:05;5.32;;;4.82;;
67816;SDS011;54614;47.576;7.524;2022-07-23T03:45:31;5.50;;;4.70;;
67816;SDS011;54614;47.576;7.524;2022-07-23T03:47:57;5.20;;;4.70;;
67816;SDS011;54614;47.576;7.524;2022-07-23T03:50:24;5.30;;;4.80;;
67816;SDS011;54614;47.576;7.524;2022-07-23T03:52:50;5.13;;;4.63;;
67816;SDS011;54614;47.576;7.524;2022-07-23T03:55:16;4.80;;;4.40;;
67816;SDS011;54614;47.576;7.524;2022-07-23T03:57:42;5.50;;;5.00;;
67816;SDS011;54614;47.576;7.524;2022-07-23T04:00:09;5.20;;;4.70;;
67816;SDS011;54614;47.576;7.524;2022-07-23T04:02:36;5.38;;;4.88;;
67816;SDS011;54614;47.576;7.524;2022-07-23T04:05:03;5.35;;;4.85;;
67816;SDS011;54614;47.576;7.524;2022-07-23T04:07:30;5.00;;;4.53;;
67816;SDS011;54614;47.576;7.524;2022-07-23T04:09:56;5.20;;;4.70;;
67816;SDS011;54614;47.576;7.524;2022-07-23T04:12:23;5.32;;;4.82;;
67816;SDS011;54614;47.576;7.524;2022-07-23T04:14:49;4.88;;;4.47;;
67816;SDS011;54614;47.576;7.524;2022-07-23T04:17:15;4.95;;;4.45;;
67816;SDS011;54614;47.576;7.524;2022-07-23T04:19:42;4.95;;;4.50;;
67816;SDS011;54614;47.576;7.524;2022-07-23T04:22:11;5.05;;;4.55;;
67816;SDS011;54614;47.576;7.524;2022-07-23T04:24:38;5.40;;;4.88;;
67816;SDS011;54614;47.576;7.524;2022-07-23T04:27:04;4.88;;;4.40;;
67816;SDS011;54614;47.576;7.524;2022-07-23T04:29:30;5.13;;;4.63;;
67816;SDS011;54614;47.576;7.524;2022-07-23T04:31:56;5.13;;;4.63;;
67816;SDS011;54614;47.576;7.524;2022-07-23T04:34:23;4.90;;;4.40;;
67816;SDS011;54614;47.576;7.524;2022-07-23T04:36:51;4.78;;;4.38;;
67816;SDS011;54614;47.576;7.524;2022-07-23T04:39:18;5.35;;;4.85;;
67816;SDS011;54614;47.576;7.524;2022-07-23T04:41:44;5.10;;;4.60;;
67816;SDS011;54614;47.576;7.524;2022-07-23T04:44:10;4.93;;;4.53;;
67816;SDS011;54614;47.576;7.524;2022-07-23T04:46:36;4.70;;;4.30;;
67816;SDS011;54614;47.576;7.524;2022-07-23T04:49:02;5.35;;;4.85;;
67816;SDS011;54614;47.576;7.524;2022-07-23T04:51:28;5.07;;;4.57;;
67816;SDS011;54614;47.576;7.524;2022-07-23T04:53:54;5.07;;;4.60;;
67816;SDS011;54614;47.576;7.524;2022-07-23T04:56:21;5.22;;;4.22;;
67816;SDS011;54614;47.576;7.524;2022-07-23T04:58:47;5.03;;;4.53;;
67816;SDS011;54614;47.576;7.524;2022-07-23T05:01:13;4.50;;;4.10;;
67816;SDS011;54614;47.576;7.524;2022-07-23T05:03:39;4.80;;;4.40;;
67816;SDS011;54614;47.576;7.524;2022-07-23T05:06:05;4.80;;;4.38;;
67816;SDS011;54614;47.576;7.524;2022-07-23T05:08:31;4.97;;;4.55;;
67816;SDS011;54614;47.576;7.524;2022-07-23T05:10:57;4.60;;;4.20;;
67816;SDS011;54614;47.576;7.524;2022-07-23T05:13:23;4.82;;;4.43;;
67816;SDS011;54614;47.576;7.524;2022-07-23T05:15:49;5.25;;;4.75;;
67816;SDS011;54614;47.576;7.524;2022-07-23T05:18:14;4.78;;;4.38;;
67816;SDS011;54614;47.576;7.524;2022-07-23T05:20:40;4.70;;;4.30;;
67816;SDS011;54614;47.576;7.524;2022-07-23T05:23:06;4.57;;;4.18;;
67816;SDS011;54614;47.576;7.524;2022-07-23T05:25:32;4.93;;;4.50;;
67816;SDS011;54614;47.576;7.524;2022-07-23T05:27:58;4.90;;;4.50;;
67816;SDS011;54614;47.576;7.524;2022-07-23T05:30:24;5.05;;;4.57;;
67816;SDS011;54614;47.576;7.524;2022-07-23T05:32:50;4.63;;;4.22;;
67816;SDS011;54614;47.576;7.524;2022-07-23T05:35:16;4.63;;;4.22;;
67816;SDS011;54614;47.576;7.524;2022-07-23T05:37:42;8.63;;;5.97;;
67816;SDS011;54614;47.576;7.524;2022-07-23T05:40:09;23.92;;;7.15;;
67816;SDS011;54614;47.576;7.524;2022-07-23T05:42:36;12.10;;;7.60;;
67816;SDS011;54614;47.576;7.524;2022-07-23T05:45:05;9.63;;;7.80;;
67816;SDS011;54614;47.576;7.524;2022-07-23T05:47:39;10.35;;;8.18;;
67816;SDS011;54614;47.576;7.524;2022-07-23T05:50:12;10.15;;;8.23;;
67816;SDS011;54614;47.576;7.524;2022-07-23T05:52:39;12.48;;;8.40;;
67816;SDS011;54614;47.576;7.524;2022-07-23T05:55:05;13.15;;;8.70;;
67816;SDS011;54614;47.576;7.524;2022-07-23T05:57:33;11.88;;;8.82;;
67816;SDS011;54614;47.576;7.524;2022-07-23T05:59:59;13.25;;;8.23;;
67816;SDS011;54614;47.576;7.524;2022-07-23T06:02:26;10.75;;;8.23;;
67816;SDS011;54614;47.576;7.524;2022-07-23T06:04:51;9.80;;;8.07;;
67816;SDS011;54614;47.576;7.524;2022-07-23T06:07:17;11.73;;;8.15;;
67816;SDS011;54614;47.576;7.524;2022-07-23T06:09:43;12.32;;;8.75;;
67816;SDS011;54614;47.576;7.524;2022-07-23T06:12:09;11.23;;;8.60;;
67816;SDS011;54614;47.576;7.524;2022-07-23T06:14:35;11.95;;;8.65;;
67816;SDS011;54614;47.576;7.524;2022-07-23T06:17:01;15.63;;;9.15;;
67816;SDS011;54614;47.576;7.524;2022-07-23T06:19:27;11.35;;;8.63;;
67816;SDS011;54614;47.576;7.524;2022-07-23T06:21:52;11.23;;;8.70;;
67816;SDS011;54614;47.576;7.524;2022-07-23T06:24:18;13.35;;;9.05;;
67816;SDS011;54614;47.576;7.524;2022-07-23T06:26:44;11.38;;;8.82;;
67816;SDS011;54614;47.576;7.524;2022-07-23T06:29:10;11.35;;;8.73;;
67816;SDS011;54614;47.576;7.524;2022-07-23T06:31:36;14.90;;;9.32;;
67816;SDS011;54614;47.576;7.524;2022-07-23T06:34:02;13.32;;;9.00;;
67816;SDS011;54614;47.576;7.524;2022-07-23T06:36:28;12.43;;;8.93;;
67816;SDS011;54614;47.576;7.524;2022-07-23T06:38:54;13.20;;;9.27;;
67816;SDS011;54614;47.576;7.524;2022-07-23T06:41:20;14.18;;;9.43;;
67816;SDS011;54614;47.576;7.524;2022-07-23T06:43:47;17.33;;;9.50;;
67816;SDS011;54614;47.576;7.524;2022-07-23T06:46:13;14.27;;;9.70;;
67816;SDS011;54614;47.576;7.524;2022-07-23T06:48:39;14.02;;;9.88;;
67816;SDS011;54614;47.576;7.524;2022-07-23T06:51:05;14.98;;;10.48;;
67816;SDS011;54614;47.576;7.524;2022-07-23T06:53:31;13.18;;;10.18;;
67816;SDS011;54614;47.576;7.524;2022-07-23T06:55:57;14.10;;;10.52;;
67816;SDS011;54614;47.576;7.524;2022-07-23T06:58:23;16.15;;;11.07;;
67816;SDS011;54614;47.576;7.524;2022-07-23T07:00:49;14.40;;;10.05;;
67816;SDS011;54614;47.576;7.524;2022-07-23T07:03:16;12.05;;;9.65;;
67816;SDS011;54614;47.576;7.524;2022-07-23T07:05:43;13.35;;;8.90;;
67816;SDS011;54614;47.576;7.524;2022-07-23T07:08:09;13.05;;;8.80;;
67816;SDS011;54614;47.576;7.524;2022-07-23T07:10:35;11.23;;;9.13;;
67816;SDS011;54614;47.576;7.524;2022-07-23T07:13:01;11.55;;;8.70;;
67816;SDS011;54614;47.576;7.524;2022-07-23T07:15:27;12.45;;;8.73;;
67816;SDS011;54614;47.576;7.524;2022-07-23T07:17:53;11.13;;;8.90;;
67816;SDS011;54614;47.576;7.524;2022-07-23T07:20:18;12.65;;;8.48;;
67816;SDS011;54614;47.576;7.524;2022-07-23T07:22:44;10.55;;;8.48;;
67816;SDS011;54614;47.576;7.524;2022-07-23T07:25:10;12.10;;;8.85;;
67816;SDS011;54614;47.576;7.524;2022-07-23T07:27:36;9.93;;;8.07;;
67816;SDS011;54614;47.576;7.524;2022-07-23T07:30:03;12.10;;;8.60;;
67816;SDS011;54614;47.576;7.524;2022-07-23T07:32:30;11.50;;;8.88;;
67816;SDS011;54614;47.576;7.524;2022-07-23T07:34:57;9.65;;;7.95;;
67816;SDS011;54614;47.576;7.524;2022-07-23T07:37:23;10.13;;;8.50;;
67816;SDS011;54614;47.576;7.524;2022-07-23T07:39:49;11.35;;;8.35;;
67816;SDS011;54614;47.576;7.524;2022-07-23T07:42:15;10.60;;;8.00;;
67816;SDS011;54614;47.576;7.524;2022-07-23T07:44:41;11.75;;;8.60;;
67816;SDS011;54614;47.576;7.524;2022-07-23T07:47:07;9.70;;;8.35;;
67816;SDS011;54614;47.576;7.524;2022-07-23T07:49:33;11.10;;;8.50;;
67816;SDS011;54614;47.576;7.524;2022-07-23T07:51:59;11.35;;;8.02;;
67816;SDS011;54614;47.576;7.524;2022-07-23T07:54:24;9.90;;;8.35;;
67816;SDS011;54614;47.576;7.524;2022-07-23T07:56:50;10.68;;;8.45;;
67816;SDS011;54614;47.576;7.524;2022-07-23T07:59:16;10.77;;;8.25;;
67816;SDS011;54614;47.576;7.524;2022-07-23T08:01:42;10.95;;;8.02;;
67816;SDS011;54614;47.576;7.524;2022-07-23T08:04:08;13.73;;;8.45;;
67816;SDS011;54614;47.576;7.524;2022-07-23T08:06:34;13.98;;;8.75;;
67816;SDS011;54614;47.576;7.524;2022-07-23T08:09:00;11.05;;;8.13;;
67816;SDS011;54614;47.576;7.524;2022-07-23T08:11:26;9.98;;;8.07;;
67816;SDS011;54614;47.576;7.524;2022-07-23T08:13:51;10.30;;;7.78;;
67816;SDS011;54614;47.576;7.524;2022-07-23T08:16:17;13.70;;;8.05;;
67816;SDS011;54614;47.576;7.524;2022-07-23T08:18:43;9.70;;;8.10;;
67816;SDS011;54614;47.576;7.524;2022-07-23T08:21:09;10.02;;;8.05;;
67816;SDS011;54614;47.576;7.524;2022-07-23T08:23:36;11.23;;;7.93;;
67816;SDS011;54614;47.576;7.524;2022-07-23T08:26:02;10.15;;;8.23;;
67816;SDS011;54614;47.576;7.524;2022-07-23T08:28:28;14.43;;;8.10;;
67816;SDS011;54614;47.576;7.524;2022-07-23T08:30:54;11.57;;;8.05;;
67816;SDS011;54614;47.576;7.524;2022-07-23T08:33:22;11.75;;;7.90;;
67816;SDS011;54614;47.576;7.524;2022-07-23T08:35:49;11.30;;;7.57;;
67816;SDS011;54614;47.576;7.524;2022-07-23T08:38:18;10.90;;;7.70;;
67816;SDS011;54614;47.576;7.524;2022-07-23T08:40:50;11.00;;;7.47;;
67816;SDS011;54614;47.576;7.524;2022-07-23T08:43:23;10.10;;;7.93;;
67816;SDS011;54614;47.576;7.524;2022-07-23T08:45:52;10.52;;;7.78;;
67816;SDS011;54614;47.576;7.524;2022-07-23T08:48:22;11.40;;;7.68;;
67816;SDS011;54614;47.576;7.524;2022-07-23T08:50:51;9.95;;;7.55;;
67816;SDS011;54614;47.576;7.524;2022-07-23T08:53:19;10.48;;;7.90;;
67816;SDS011;54614;47.576;7.524;2022-07-23T08:55:47;9.95;;;7.50;;
67816;SDS011;54614;47.576;7.524;2022-07-23T08:58:16;8.80;;;7.38;;
67816;SDS011;54614;47.576;7.524;2022-07-23T09:00:43;16.88;;;8.30;;
67816;SDS011;54614;47.576;7.524;2022-07-23T09:03:23;18.33;;;8.13;;
67816;SDS011;54614;47.576;7.524;2022-07-23T09:05:55;12.82;;;7.15;;
67816;SDS011;54614;47.576;7.524;2022-07-23T09:08:24;11.65;;;7.45;;
67816;SDS011;54614;47.576;7.524;2022-07-23T09:11:00;16.92;;;7.25;;
67816;SDS011;54614;47.576;7.524;2022-07-23T09:13:30;10.93;;;7.25;;
67816;SDS011;54614;47.576;7.524;2022-07-23T09:16:05;12.90;;;7.53;;
67816;SDS011;54614;47.576;7.524;2022-07-23T09:21:25;10.85;;;6.93;;
67816;SDS011;54614;47.576;7.524;2022-07-23T09:24:04;8.75;;;6.85;;
67816;SDS011;54614;47.576;7.524;2022-07-23T09:31:59;9.88;;;7.40;;
67816;SDS011;54614;47.576;7.524;2022-07-23T09:34:31;11.35;;;7.30;;
67816;SDS011;54614;47.576;7.524;2022-07-23T09:37:12;8.50;;;6.80;;
67816;SDS011;54614;47.576;7.524;2022-07-23T09:39:41;10.13;;;7.03;;
67816;SDS011;54614;47.576;7.524;2022-07-23T09:42:19;8.55;;;6.82;;
67816;SDS011;54614;47.576;7.524;2022-07-23T09:44:48;8.52;;;6.57;;
67816;SDS011;54614;47.576;7.524;2022-07-23T09:47:28;9.95;;;6.60;;
67816;SDS011;54614;47.576;7.524;2022-07-23T09:50:03;9.27;;;6.43;;
67816;SDS011;54614;47.576;7.524;2022-07-23T09:52:42;8.48;;;6.80;;
67816;SDS011;54614;47.576;7.524;2022-07-23T09:55:13;7.80;;;6.70;;
67816;SDS011;54614;47.576;7.524;2022-07-23T09:57:43;7.30;;;6.50;;
67816;SDS011;54614;47.576;7.524;2022-07-23T10:00:20;7.82;;;6.78;;
67816;SDS011;54614;47.576;7.524;2022-07-23T10:02:49;8.23;;;6.65;;
67816;SDS011;54614;47.576;7.524;2022-07-23T10:05:16;7.35;;;6.55;;
67816;SDS011;54614;47.576;7.524;2022-07-23T10:07:44;8.65;;;6.45;;
67816;SDS011;54614;47.576;7.524;2022-07-23T10:10:11;8.68;;;6.50;;
67816;SDS011;54614;47.576;7.524;2022-07-23T10:12:39;6.75;;;6.05;;
67816;SDS011;54614;47.576;7.524;2022-07-23T10:15:17;9.27;;;6.65;;
67816;SDS011;54614;47.576;7.524;2022-07-23T10:17:43;7.70;;;6.45;;
67816;SDS011;54614;47.576;7.524;2022-07-23T10:20:09;9.15;;;6.70;;
67816;SDS011;54614;47.576;7.524;2022-07-23T10:22:39;8.52;;;6.40;;
67816;SDS011;54614;47.576;7.524;2022-07-23T10:31:26;7.50;;;6.50;;
67816;SDS011;54614;47.576;7.524;2022-07-23T10:34:44;7.68;;;6.43;;
67816;SDS011;54614;47.576;7.524;2022-07-23T10:37:49;7.82;;;6.20;;
67816;SDS011;54614;47.576;7.524;2022-07-23T10:40:22;7.30;;;6.10;;
67816;SDS011;54614;47.576;7.524;2022-07-23T10:42:49;8.77;;;6.35;;
67816;SDS011;54614;47.576;7.524;2022-07-23T10:47:55;7.35;;;6.60;;
67816;SDS011;54614;47.576;7.524;2022-07-23T10:50:37;7.35;;;6.55;;
67816;SDS011;54614;47.576;7.524;2022-07-23T10:55:40;7.53;;;5.93;;
67816;SDS011;54614;47.576;7.524;2022-07-23T10:58:17;7.32;;;6.53;;
67816;SDS011;54614;47.576;7.524;2022-07-23T11:01:47;7.00;;;6.30;;
67816;SDS011;54614;47.576;7.524;2022-07-23T11:04:06;6.80;;;5.95;;
67816;SDS011;54614;47.576;7.524;2022-07-23T11:09:38;6.78;;;6.07;;
67816;SDS011;54614;47.576;7.524;2022-07-23T11:17:27;7.78;;;6.40;;
67816;SDS011;54614;47.576;7.524;2022-07-23T11:20:12;7.00;;;6.07;;
67816;SDS011;54614;47.576;7.524;2022-07-23T11:25:11;6.80;;;6.10;;
67816;SDS011;54614;47.576;7.524;2022-07-23T11:27:47;6.28;;;5.63;;
67816;SDS011;54614;47.576;7.524;2022-07-23T11:32:51;6.63;;;5.95;;
67816;SDS011;54614;47.576;7.524;2022-07-23T11:35:33;7.07;;;6.05;;
67816;SDS011;54614;47.576;7.524;2022-07-23T11:38:06;7.40;;;5.93;;
67816;SDS011;54614;47.576;7.524;2022-07-23T11:40:45;6.45;;;5.78;;
67816;SDS011;54614;47.576;7.524;2022-07-23T11:43:16;6.72;;;6.03;;
67816;SDS011;54614;47.576;7.524;2022-07-23T11:45:45;6.82;;;5.82;;
67816;SDS011;54614;47.576;7.524;2022-07-23T11:48:22;6.30;;;5.70;;
67816;SDS011;54614;47.576;7.524;2022-07-23T11:50:54;7.10;;;6.07;;
67816;SDS011;54614;47.576;7.524;2022-07-23T11:53:26;7.60;;;6.10;;
67816;SDS011;54614;47.576;7.524;2022-07-23T11:56:02;6.30;;;5.70;;
67816;SDS011;54614;47.576;7.524;2022-07-23T11:58:35;7.03;;;5.55;;
67816;SDS011;54614;47.576;7.524;2022-07-23T12:01:01;6.68;;;5.60;;
67816;SDS011;54614;47.576;7.524;2022-07-23T12:03:29;6.32;;;5.65;;
67816;SDS011;54614;47.576;7.524;2022-07-23T12:05:58;6.53;;;5.80;;
67816;SDS011;54614;47.576;7.524;2022-07-23T12:08:25;6.55;;;5.80;;
67816;SDS011;54614;47.576;7.524;2022-07-23T12:10:52;7.93;;;5.72;;
67816;SDS011;54614;47.576;7.524;2022-07-23T12:13:18;7.75;;;5.65;;
67816;SDS011;54614;47.576;7.524;2022-07-23T12:15:51;6.32;;;5.70;;
67816;SDS011;54614;47.576;7.524;2022-07-23T12:18:22;6.78;;;5.93;;
67816;SDS011;54614;47.576;7.524;2022-07-23T12:20:52;5.82;;;5.30;;
67816;SDS011;54614;47.576;7.524;2022-07-23T12:23:24;6.35;;;5.75;;
67816;SDS011;54614;47.576;7.524;2022-07-23T12:25:52;6.88;;;6.03;;
67816;SDS011;54614;47.576;7.524;2022-07-23T12:30:58;6.60;;;5.55;;
67816;SDS011;54614;47.576;7.524;2022-07-23T12:33:26;6.05;;;5.40;;
67816;SDS011;54614;47.576;7.524;2022-07-23T12:35:54;6.57;;;5.82;;
67816;SDS011;54614;47.576;7.524;2022-07-23T12:38:23;6.38;;;5.75;;
67816;SDS011;54614;47.576;7.524;2022-07-23T12:40:57;6.95;;;5.82;;
67816;SDS011;54614;47.576;7.524;2022-07-23T12:43:28;6.10;;;5.50;;
67816;SDS011;54614;47.576;7.524;2022-07-23T12:46:02;5.85;;;5.25;;
67816;SDS011;54614;47.576;7.524;2022-07-23T12:48:34;6.68;;;5.25;;
67816;SDS011;54614;47.576;7.524;2022-07-23T12:51:09;6.82;;;5.68;;
67816;SDS011;54614;47.576;7.524;2022-07-23T12:53:47;5.95;;;5.35;;
67816;SDS011;54614;47.576;7.524;2022-07-23T12:56:26;5.45;;;4.90;;
67816;SDS011;54614;47.576;7.524;2022-07-23T12:58:54;5.97;;;5.28;;
67816;SDS011;54614;47.576;7.524;2022-07-23T13:01:35;6.53;;;5.78;;
67816;SDS011;54614;47.576;7.524;2022-07-23T13:06:37;6.43;;;5.65;;
67816;SDS011;54614;47.576;7.524;2022-07-23T13:09:11;5.63;;;5.03;;
67816;SDS011;54614;47.576;7.524;2022-07-23T13:11:42;6.35;;;5.63;;
67816;SDS011;54614;47.576;7.524;2022-07-23T13:14:10;6.10;;;5.43;;
67816;SDS011;54614;47.576;7.524;2022-07-23T13:16:37;6.55;;;5.38;;
67816;SDS011;54614;47.576;7.524;2022-07-23T13:19:05;5.65;;;5.15;;
67816;SDS011;54614;47.576;7.524;2022-07-23T13:21:32;5.72;;;5.20;;
67816;SDS011;54614;47.576;7.524;2022-07-23T13:23:58;5.60;;;5.07;;
67816;SDS011;54614;47.576;7.524;2022-07-23T13:26:25;6.80;;;5.55;;
67816;SDS011;54614;47.576;7.524;2022-07-23T13:28:51;6.10;;;5.25;;
67816;SDS011;54614;47.576;7.524;2022-07-23T13:31:18;5.90;;;5.30;;
67816;SDS011;54614;47.576;7.524;2022-07-23T13:33:45;5.82;;;5.32;;
67816;SDS011;54614;47.576;7.524;2022-07-23T13:36:12;6.10;;;5.50;;
67816;SDS011;54614;47.576;7.524;2022-07-23T13:38:37;5.90;;;5.32;;
67816;SDS011;54614;47.576;7.524;2022-07-23T13:41:04;5.32;;;4.82;;
67816;SDS011;54614;47.576;7.524;2022-07-23T13:43:30;5.45;;;4.95;;
67816;SDS011;54614;47.576;7.524;2022-07-23T13:45:57;5.60;;;5.00;;
67816;SDS011;54614;47.576;7.524;2022-07-23T13:48:26;5.65;;;5.05;;
67816;SDS011;54614;47.576;7.524;2022-07-23T13:50:51;5.78;;;5.18;;
67816;SDS011;54614;47.576;7.524;2022-07-23T13:53:19;5.47;;;4.97;;
67816;SDS011;54614;47.576;7.524;2022-07-23T13:55:49;5.35;;;4.85;;
67816;SDS011;54614;47.576;7.524;2022-07-23T13:58:17;5.57;;;5.07;;
67816;SDS011;54614;47.576;7.524;2022-07-23T14:00:44;5.85;;;5.22;;
67816;SDS011;54614;47.576;7.524;2022-07-23T14:03:14;5.22;;;4.72;;
67816;SDS011;54614;47.576;7.524;2022-07-23T14:05:41;5.68;;;5.18;;
67816;SDS011;54614;47.576;7.524;2022-07-23T14:08:07;5.82;;;5.22;;
67816;SDS011;54614;47.576;7.524;2022-07-23T14:10:35;5.25;;;4.75;;
67816;SDS011;54614;47.576;7.524;2022-07-23T14:13:01;5.28;;;4.78;;
67816;SDS011;54614;47.576;7.524;2022-07-23T14:15:28;5.40;;;4.88;;
67816;SDS011;54614;47.576;7.524;2022-07-23T14:17:58;5.05;;;4.65;;
67816;SDS011;54614;47.576;7.524;2022-07-23T14:20:24;5.70;;;5.20;;
67816;SDS011;54614;47.576;7.524;2022-07-23T14:22:51;5.72;;;5.15;;
67816;SDS011;54614;47.576;7.524;2022-07-23T14:25:18;5.30;;;4.80;;
67816;SDS011;54614;47.576;7.524;2022-07-23T14:27:44;5.40;;;4.90;;
67816;SDS011;54614;47.576;7.524;2022-07-23T14:30:10;4.95;;;4.43;;
67816;SDS011;54614;47.576;7.524;2022-07-23T14:32:37;4.88;;;4.43;;
67816;SDS011;54614;47.576;7.524;2022-07-23T14:35:04;5.43;;;4.90;;
67816;SDS011;54614;47.576;7.524;2022-07-23T14:37:31;5.32;;;4.82;;
67816;SDS011;54614;47.576;7.524;2022-07-23T14:39:58;5.63;;;5.05;;
67816;SDS011;54614;47.576;7.524;2022-07-23T14:42:25;5.03;;;4.55;;
67816;SDS011;54614;47.576;7.524;2022-07-23T14:44:51;5.47;;;4.97;;
67816;SDS011;54614;47.576;7.524;2022-07-23T14:47:17;5.38;;;4.88;;
67816;SDS011;54614;47.576;7.524;2022-07-23T14:49:43;5.10;;;4.60;;
67816;SDS011;54614;47.576;7.524;2022-07-23T14:52:09;4.90;;;4.50;;
67816;SDS011;54614;47.576;7.524;2022-07-23T14:54:35;4.82;;;4.43;;
67816;SDS011;54614;47.576;7.524;2022-07-23T14:57:02;5.07;;;4.60;;
67816;SDS011;54614;47.576;7.524;2022-07-23T14:59:28;5.38;;;4.88;;
67816;SDS011;54614;47.576;7.524;2022-07-23T15:01:55;5.13;;;4.72;;
67816;SDS011;54614;47.576;7.524;2022-07-23T15:04:22;5.15;;;4.65;;
67816;SDS011;54614;47.576;7.524;2022-07-23T15:06:49;5.47;;;4.93;;
67816;SDS011;54614;47.576;7.524;2022-07-23T15:09:15;5.18;;;4.70;;
67816;SDS011;54614;47.576;7.524;2022-07-23T15:11:41;5.00;;;4.57;;
67816;SDS011;54614;47.576;7.524;2022-07-23T15:14:07;4.75;;;4.25;;
67816;SDS011;54614;47.576;7.524;2022-07-23T15:16:34;4.70;;;4.30;;
67816;SDS011;54614;47.576;7.524;2022-07-23T15:19:00;4.97;;;4.53;;
67816;SDS011;54614;47.576;7.524;2022-07-23T15:21:28;4.90;;;4.43;;
67816;SDS011;54614;47.576;7.524;2022-07-23T15:23:54;5.03;;;4.63;;
67816;SDS011;54614;47.576;7.524;2022-07-23T15:26:24;5.20;;;4.70;;
67816;SDS011;54614;47.576;7.524;2022-07-23T15:28:51;5.03;;;4.63;;